메인 페이지
METAR-TAF:

METAR-TAF

공항 :

Livermore Municipal Airport

Livermore, 캘리포니아, 미국

위도: 37-41-34N, 경도: 121-48-52W, 고도: 121m

현재 날씨관측

예보는 28분 전, 18:53시(UTC)에 발표되었습니다.
서북서10kt
온도 23°C
습도 47%
기압 1013 hPa
시정: 16.1km
맑음

METAR: KLVK 131853Z 30010KT 10SM CLR 23/11 A2992 RMK AO2 SLP129 T02280111

시각: 12:21 (19:21 UTC)

예보

예보는 1 시간 48분 전, 17:33시(UTC)에 발표되었습니다.
예보 대상 시간: 13일 18시부터 14일 18시까지 (UTC)
서북서8kt
시정: 10km
맑음
13일 2000시부터 (UTC)
서북서13kt, 순간 최대 풍속 18kt
시정: 10km
맑음
14일 0500시부터 (UTC)
서북서8kt
시정: 10km
고도 1500ft 상공 구름 조금
14일 1200시부터 (UTC)
서북서5kt
시정: 10km
고도 1500ft 상공 구름 조금

TAF: KLVK 131733Z 1318/1418 29008KT P6SM SKC FM132000 29013G18KT P6SM SKC FM140500 30008KT P6SM FEW015 FM141200 29005KT P6SM FEW015

4,000개 이상의 공항 관측 자료 및 예보 (METAR 및 TAF 보고).

지도상에서 검색 가능한 기상관측소가 노란 점과 빨간 점으로 표시되어 있습니다.

기상관측소 명을 보려면 표시 위로 마우스를 이동하세요.

날씨 관측과 예보를 보려면 클릭하세요.

지도 변경 : 확대하려면 엑스 표시가 있는 녹색 버튼, 축소하려면 빼기 표시가 있는 녹색 버튼, 다음 페이지의 지도를 보려면 녹색 화살표를 클릭하세요.


METAR-TAF: